Time;durP1;ratioP1;P1;durP2;ratioP2;P2;SDS_P1;SDS_P2;PMS_P1;PMS_P2;Temp;Humidity;BMP_temperature;BMP_pressure;BME280_temperature;BME280_humidity;BME280_pressure;Samples;Min_cycle;Max_cycle;Signal;HPM_P1;HPM_P2
2023/03/26 00:03:02;;;;;;;1.80;0.80;;;;;;;17.86;56.39;96216.53;10392832;28;20030;-32
2023/03/26 00:08:02;;;;;;;2.20;1.00;;;;;;;17.88;55.80;96221.56;10398531;28;20029;-33
2023/03/26 00:13:04;;;;;;;2.28;0.75;;;;;;;17.87;55.66;96202.16;10388469;28;20296;-32
2023/03/26 00:18:04;;;;;;;1.80;0.82;;;;;;;17.87;56.55;96204.69;10383325;28;20092;-33
2023/03/26 00:23:06;;;;;;;2.83;0.90;;;;;;;17.91;59.12;96198.75;10395462;28;20037;-33
2023/03/26 00:28:07;;;;;;;2.78;1.13;;;;;;;17.93;59.21;96208.00;10386038;28;20034;-33
2023/03/26 00:33:10;;;;;;;3.67;0.90;;;;;;;17.91;58.70;96193.69;10379250;28;20083;-32
2023/03/26 00:38:14;;;;;;;1.55;0.70;;;;;;;17.83;57.91;96188.66;10392897;28;20034;-33
2023/03/26 00:43:17;;;;;;;3.30;0.90;;;;;;;17.87;56.67;96192.03;10398371;28;20546;-32
2023/03/26 00:48:19;;;;;;;3.08;0.70;;;;;;;17.87;55.67;96195.41;10393400;28;20029;-33
2023/03/26 00:53:20;;;;;;;1.08;0.50;;;;;;;17.87;55.92;96199.63;10392234;28;20044;-34
2023/03/26 00:58:21;;;;;;;3.25;0.68;;;;;;;17.86;55.50;96200.47;10393539;28;20038;-32
2023/03/26 01:03:23;;;;;;;2.25;0.93;;;;;;;17.87;56.12;96199.63;10387728;28;20029;-32
2023/03/26 01:08:34;;;;;;;3.28;0.80;;;;;;;17.85;55.37;96191.19;10371712;28;20026;-33
2023/03/26 01:13:37;;;;;;;2.33;0.47;;;;;;;17.84;55.22;96180.22;10376807;28;20038;-32
2023/03/26 01:18:39;;;;;;;2.22;0.68;;;;;;;17.84;55.15;96169.25;10391820;28;20073;-33
2023/03/26 01:23:50;;;;;;;2.53;0.88;;;;;;;17.85;55.19;96168.41;10395755;28;20034;-33
2023/03/26 01:28:55;;;;;;;4.97;0.80;;;;;;;17.92;59.17;96152.34;10393035;28;20057;-34
2023/03/26 01:34:16;;;;;;;2.47;0.85;;;;;;;17.92;59.32;96124.47;10395116;28;20041;-33
2023/03/26 01:39:40;;;;;;;1.85;0.80;;;;;;;17.85;57.80;96103.44;10389957;28;20030;-32
2023/03/26 01:44:49;;;;;;;3.40;1.05;;;;;;;17.82;56.51;96077.28;10387290;28;20034;-32
2023/03/26 01:49:49;;;;;;;1.75;0.60;;;;;;;17.83;55.47;96067.13;10384263;28;20029;-32
2023/03/26 01:54:51;;;;;;;3.17;1.43;;;;;;;17.82;55.55;96051.97;10396533;28;20037;-33
2023/03/26 02:00:10;;;;;;;1.33;0.60;;;;;;;17.82;55.43;96037.59;10400260;28;20096;-32
2023/03/26 02:05:25;;;;;;;4.43;0.63;;;;;;;17.77;55.50;96019.09;10392311;28;20494;-32
2023/03/26 02:10:32;;;;;;;2.95;1.05;;;;;;;17.81;55.61;96019.88;10394452;28;20046;-32
2023/03/26 02:15:33;;;;;;;3.38;0.60;;;;;;;17.80;55.18;96018.19;10395209;28;20120;-32
2023/03/26 02:20:33;;;;;;;2.42;1.15;;;;;;;17.81;54.83;96002.16;10391332;28;20112;-35
2023/03/26 02:25:35;;;;;;;2.73;0.60;;;;;;;17.80;54.89;95996.28;10393489;28;20036;-33
2023/03/26 02:30:36;;;;;;;3.17;1.10;;;;;;;17.85;58.84;95986.09;10390276;28;20029;-33
2023/03/26 02:35:37;;;;;;;3.90;1.13;;;;;;;17.84;59.33;95970.06;10395034;28;20120;-33
2023/03/26 02:40:37;;;;;;;1.48;0.80;;;;;;;17.86;59.17;95965.00;10382646;28;20518;-33
2023/03/26 02:45:38;;;;;;;3.78;1.10;;;;;;;17.79;57.92;95960.84;10378212;28;20120;-33
2023/03/26 02:50:38;;;;;;;2.93;0.73;;;;;;;17.79;56.90;95955.75;10384915;28;20048;-33
2023/03/26 02:56:08;;;;;;;3.45;0.50;;;;;;;17.77;56.39;95944.81;10386445;28;20041;-32
2023/03/26 03:01:17;;;;;;;1.52;0.68;;;;;;;17.77;56.09;95942.28;10398966;28;20033;-37
2023/03/26 03:06:25;;;;;;;4.30;0.80;;;;;;;17.71;56.56;95917.88;10400546;28;20040;-33
2023/03/26 03:11:29;;;;;;;2.30;1.15;;;;;;;17.75;56.25;95913.63;10388588;28;20025;-32
2023/03/26 03:16:30;;;;;;;3.83;0.82;;;;;;;17.74;55.93;95902.66;10397369;28;20033;-33
2023/03/26 03:21:34;;;;;;;1.42;0.77;;;;;;;17.75;55.62;95906.03;10386524;28;20038;-32
2023/03/26 03:26:35;;;;;;;3.80;0.60;;;;;;;17.74;56.68;95902.66;10393448;28;20025;-33
2023/03/26 03:31:46;;;;;;;3.92;0.70;;;;;;;17.75;55.36;95889.13;10385272;28;20073;-33
2023/03/26 03:37:03;;;;;;;3.22;1.45;;;;;;;17.81;58.78;95873.88;10386464;28;20038;-33
2023/03/26 03:42:10;;;;;;;2.53;1.02;;;;;;;17.84;59.28;95862.91;10390538;28;20087;-33
2023/03/26 03:47:12;;;;;;;6.88;1.60;;;;;;;17.83;59.64;95849.38;10387825;28;20026;-33
2023/03/26 03:52:13;;;;;;;3.88;1.30;;;;;;;17.75;57.91;95850.34;10373778;28;20029;-33
2023/03/26 03:57:17;;;;;;;2.30;0.57;;;;;;;17.75;57.58;95853.69;10378960;28;20033;-33
2023/03/26 04:02:33;;;;;;;2.92;0.80;;;;;;;17.72;56.56;95843.63;10395817;28;20397;-35
2023/03/26 04:07:35;;;;;;;;;;;;;;;17.73;56.35;95842.75;10402764;28;20029;-33
2023/03/26 04:12:38;;;;;;;1.70;0.55;;;;;;;17.71;55.76;95818.31;10393496;28;19913;-33
2023/03/26 04:17:41;;;;;;;2.10;0.60;;;;;;;17.68;55.76;95798.09;10397300;28;20033;-33
2023/03/26 04:22:42;;;;;;;3.15;0.70;;;;;;;17.70;55.44;95788.78;10382705;28;20037;-33
2023/03/26 04:27:45;;;;;;;0.80;0.40;;;;;;;17.72;56.55;95782.00;10395436;28;20033;-33
2023/03/26 04:33:05;;;;;;;1.63;0.70;;;;;;;17.71;56.27;95776.13;10390343;28;20418;-31
2023/03/26 04:38:09;;;;;;;1.85;0.60;;;;;;;17.72;55.77;95766.81;10400140;28;20559;-33
2023/03/26 04:43:16;;;;;;;3.00;1.17;;;;;;;17.77;59.07;95768.47;10400624;28;20497;-32
2023/03/26 04:48:37;;;;;;;3.00;1.15;;;;;;;17.79;59.43;95763.38;10393362;28;20033;-33
2023/03/26 04:53:40;;;;;;;7.63;1.85;;;;;;;17.79;58.81;95753.22;10387382;28;20034;-33
2023/03/26 04:59:01;;;;;;;2.10;0.68;;;;;;;17.70;58.17;95740.69;10389762;28;20057;-34
2023/03/26 05:04:05;;;;;;;2.10;0.80;;;;;;;17.70;57.77;95725.50;10392272;28;20152;-33
2023/03/26 05:09:07;;;;;;;1.33;0.53;;;;;;;17.72;55.81;95723.78;10386714;28;20632;-32
2023/03/26 05:14:28;;;;;;;0.73;0.45;;;;;;;17.72;55.02;95706.06;10392973;28;20041;-34
2023/03/26 05:19:29;;;;;;;2.17;0.60;;;;;;;17.74;55.50;95717.03;10383891;28;20088;-33
2023/03/26 05:24:30;;;;;;;1.85;0.82;;;;;;;17.75;54.67;95717.00;10392724;28;20116;-32
2023/03/26 05:29:31;;;;;;;1.35;0.70;;;;;;;17.74;54.63;95696.78;10390141;28;20029;-34
2023/03/26 05:34:31;;;;;;;2.08;0.75;;;;;;;17.74;54.75;95692.53;10388706;28;20033;-33
2023/03/26 05:39:32;;;;;;;1.30;0.80;;;;;;;17.71;54.89;95679.09;10387380;28;20037;-32
2023/03/26 05:44:51;;;;;;;1.17;0.65;;;;;;;17.75;55.05;95670.59;10387697;28;20077;-32
2023/03/26 05:49:58;;;;;;;;;;;;;;;17.80;58.84;95661.25;10398367;28;20037;-33
2023/03/26 05:54:59;;;;;;;0.93;0.63;;;;;;;17.82;58.92;95639.28;10376765;28;19917;-33
2023/03/26 06:00:17;;;;;;;3.13;1.17;;;;;;;17.78;57.87;95617.41;10384077;28;20042;-32
2023/03/26 06:05:18;;;;;;;1.17;0.47;;;;;;;17.73;56.02;95601.47;10393287;28;20033;-34
2023/03/26 06:10:37;;;;;;;1.35;0.50;;;;;;;17.72;55.38;95594.69;10384817;28;20050;-32
2023/03/26 06:15:38;;;;;;;1.30;0.60;;;;;;;17.75;56.88;95587.06;10390484;28;20045;-34
2023/03/26 06:20:47;;;;;;;1.88;0.65;;;;;;;17.70;58.24;95566.03;10388038;28;20029;-33
2023/03/26 06:25:57;;;;;;;2.08;0.60;;;;;;;17.74;56.81;95557.56;10384483;28;20473;-33
2023/03/26 06:31:18;;;;;;;2.25;0.77;;;;;;;17.75;58.14;95552.47;10386944;28;20037;-32
2023/03/26 06:36:28;;;;;;;1.38;0.45;;;;;;;17.78;55.63;95557.50;10388322;28;20036;-34
2023/03/26 06:41:28;;;;;;;1.35;0.70;;;;;;;17.80;56.59;95547.31;10397759;28;20025;-33
2023/03/26 06:46:43;;;;;;;1.58;0.50;;;;;;;17.78;56.33;95551.56;10399254;28;20494;-32
2023/03/26 06:52:03;;;;;;;2.33;0.77;;;;;;;17.80;56.60;95558.28;10387589;28;20494;-33
2023/03/26 06:57:36;;;;;;;5.82;0.77;;;;;;;17.85;57.27;95563.28;10384312;28;20038;-35
2023/03/26 07:03:10;;;;;;;1.60;0.85;;;;;;;17.84;55.63;95566.69;10391898;28;20063;-33
2023/03/26 07:08:30;;;;;;;0.93;0.68;;;;;;;17.77;56.76;95530.50;10384166;28;20037;-33
2023/03/26 07:13:51;;;;;;;1.27;0.70;;;;;;;17.76;56.85;95528.00;10385663;28;20045;-32
2023/03/26 07:19:17;;;;;;;1.95;0.70;;;;;;;17.79;56.60;95538.06;10401441;28;20037;-33
2023/03/26 07:24:18;;;;;;;1.42;0.98;;;;;;;17.80;56.64;95542.25;10401213;28;20037;-33
2023/03/26 07:29:47;;;;;;;0.60;0.40;;;;;;;17.79;56.52;95512.75;10403456;28;20033;-32
2023/03/26 07:35:26;;;;;;;1.42;0.70;;;;;;;17.77;56.51;95496.75;10381307;28;20026;-33
2023/03/26 07:41:00;;;;;;;0.98;0.60;;;;;;;17.77;56.63;95509.41;10394419;28;20038;-32
2023/03/26 07:46:27;;;;;;;2.13;0.90;;;;;;;17.75;55.49;95503.53;10393196;28;20502;-34
2023/03/26 07:51:46;;;;;;;2.28;0.52;;;;;;;17.77;56.90;95504.34;10388667;28;20034;-34
2023/03/26 07:57:15;;;;;;;2.13;1.30;;;;;;;17.77;57.07;95499.28;10386179;28;20049;-33
2023/03/26 08:02:45;;;;;;;1.92;0.80;;;;;;;17.81;56.32;95499.22;10391856;28;20132;-38
2023/03/26 08:08:47;;;;;;;6.55;1.00;;;;;;;17.83;56.47;95542.22;10390953;28;20520;-33
2023/03/26 08:14:26;;;;;;;5.90;1.10;;;;;;;17.71;56.79;95595.56;10389042;28;20497;-32
2023/03/26 08:19:43;;;;;;;0.77;0.40;;;;;;;17.65;56.65;95583.84;10397641;28;20034;-33
2023/03/26 08:24:52;;;;;;;1.45;0.55;;;;;;;17.58;56.86;95604.22;10386554;28;20049;-33
2023/03/26 08:30:02;;;;;;;3.70;0.80;;;;;;;17.60;56.98;95593.22;10394614;28;20045;-32
2023/03/26 08:35:03;;;;;;;1.33;0.60;;;;;;;17.61;56.97;95583.91;10382386;28;20048;-32
2023/03/26 08:40:04;;;;;;;3.05;0.65;;;;;;;17.62;57.10;95588.09;10392421;28;20057;-32
2023/03/26 08:45:50;;;;;;;5.32;0.68;;;;;;;17.62;57.45;95573.78;10400529;28;20044;-31
2023/03/26 08:51:06;;;;;;;1.98;0.90;;;;;;;17.62;57.22;95557.72;10378343;28;20041;-33
2023/03/26 08:56:25;;;;;;;2.13;1.00;;;;;;;17.61;58.38;95566.19;10374884;28;20037;-33
2023/03/26 09:01:45;;;;;;;3.88;0.65;;;;;;;17.68;57.73;95567.78;10381952;28;20029;-32
2023/03/26 09:07:23;;;;;;;2.88;1.10;;;;;;;17.69;57.29;95565.22;10388350;28;20033;-33
2023/03/26 09:12:52;;;;;;;3.03;1.00;;;;;;;17.71;56.99;95575.31;10378656;28;20038;-33
2023/03/26 09:18:25;;;;;;;2.38;0.68;;;;;;;17.65;56.80;95585.53;10378022;28;20579;-32
2023/03/26 09:23:32;;;;;;;3.78;1.05;;;;;;;17.61;56.96;95576.31;10387034;28;20045;-33
2023/03/26 09:29:19;;;;;;;4.75;1.08;;;;;;;17.74;57.84;95577.81;10386192;28;20065;-32
2023/03/26 09:34:28;;;;;;;2.80;1.10;;;;;;;17.65;56.05;95550.94;10388386;28;20037;-34
2023/03/26 09:39:55;;;;;;;6.72;1.50;;;;;;;17.76;57.92;95574.38;10384291;28;20088;-33
2023/03/26 09:45:11;;;;;;;5.20;1.50;;;;;;;17.77;58.18;95560.88;10374972;28;20477;-33
2023/03/26 09:50:34;;;;;;;8.25;1.10;;;;;;;17.78;58.48;95554.09;10385028;28;20033;-34
2023/03/26 09:56:05;;;;;;;3.47;1.00;;;;;;;17.77;58.07;95544.84;10384454;28;20091;-32
2023/03/26 10:01:26;;;;;;;3.80;1.02;;;;;;;17.79;57.74;95570.97;10382894;28;20041;-33
2023/03/26 10:06:36;;;;;;;4.20;1.13;;;;;;;17.79;58.05;95551.56;10379245;28;20516;-32
2023/03/26 10:11:54;;;;;;;7.53;1.95;;;;;;;17.79;58.60;95548.19;10389494;28;20089;-33
2023/03/26 10:17:04;;;;;;;10.40;2.13;;;;;;;17.74;58.84;95542.38;10389635;28;20037;-32
2023/03/26 10:22:18;;;;;;;4.72;1.30;;;;;;;17.86;58.19;95567.50;10381202;28;20038;-34
2023/03/26 10:27:47;;;;;;;9.43;1.67;;;;;;;17.86;58.42;95562.41;10387830;28;20551;-33
2023/03/26 10:32:56;;;;;;;3.72;1.50;;;;;;;17.87;57.55;95554.81;10377148;28;20045;-33
2023/03/26 10:37:59;;;;;;;4.80;1.48;;;;;;;17.87;59.13;95566.63;10382540;28;20050;-33
2023/03/26 10:43:27;;;;;;;8.85;2.05;;;;;;;17.83;59.36;95554.88;10391032;28;20037;-32
2023/03/26 10:49:05;;;;;;;3.78;1.30;;;;;;;17.82;59.66;95565.88;10389544;28;20044;-33
2023/03/26 10:54:42;;;;;;;4.60;1.27;;;;;;;17.82;59.35;95563.34;10376398;28;20097;-33
2023/03/26 10:59:45;;;;;;;4.72;1.45;;;;;;;17.81;59.02;95559.13;10385713;28;20048;-33
2023/03/26 11:04:53;;;;;;;5.85;1.48;;;;;;;17.79;59.02;95550.72;10383398;28;20045;-32
2023/03/26 11:10:03;;;;;;;15.80;3.42;;;;;;;17.80;58.72;95550.69;10378343;28;20895;-35
2023/03/26 11:15:30;;;;;;;7.85;2.28;;;;;;;17.80;56.93;95547.31;10373036;28;20038;-32
2023/03/26 11:20:49;;;;;;;18.70;4.93;;;;;;;17.76;59.06;95526.28;10378488;28;20082;-37
2023/03/26 11:26:11;;;;;;;34.38;6.93;;;;;;;17.87;59.53;95546.38;10383279;28;20034;-33
2023/03/26 11:31:33;;;;;;;24.67;6.03;;;;;;;17.87;59.58;95528.66;10384009;28;20025;-32
2023/03/26 11:36:38;;;;;;;13.02;3.55;;;;;;;17.86;56.29;95526.97;10384447;28;20041;-33
2023/03/26 11:41:38;;;;;;;14.93;4.07;;;;;;;17.84;56.39;95523.66;10393347;28;20494;-33
2023/03/26 11:47:00;;;;;;;25.08;5.63;;;;;;;17.82;56.75;95560.81;10389034;28;20180;-32
2023/03/26 11:52:01;;;;;;;21.90;6.28;;;;;;;17.79;57.05;95570.97;10383764;28;20084;-34
2023/03/26 11:57:07;;;;;;;21.08;6.38;;;;;;;17.81;57.87;95614.81;10386498;28;20413;-33
2023/03/26 12:02:10;;;;;;;20.75;5.40;;;;;;;17.80;58.69;95651.09;10386282;28;20026;-33
2023/03/26 12:07:16;;;;;;;16.88;6.22;;;;;;;17.82;58.98;95650.25;10388555;28;20587;-33
2023/03/26 12:12:18;;;;;;;23.08;5.38;;;;;;;17.81;57.25;95690.75;10384968;28;20685;-32
2023/03/26 12:17:30;;;;;;;14.40;5.38;;;;;;;17.79;59.00;95659.56;10376927;28;20509;-33
2023/03/26 12:22:36;;;;;;;21.48;7.10;;;;;;;17.83;59.90;95613.94;10379782;28;20405;-33
2023/03/26 12:27:41;;;;;;;25.00;7.65;;;;;;;17.86;59.88;95581.00;10373598;28;20481;-32
2023/03/26 12:32:43;;;;;;;13.93;5.45;;;;;;;17.86;59.77;95573.41;10377610;28;20128;-34
2023/03/26 12:37:45;;;;;;;18.60;4.95;;;;;;;17.86;59.26;95562.41;10387932;28;20049;-33
2023/03/26 12:42:52;;;;;;;15.20;4.80;;;;;;;17.84;58.05;95543.91;10393390;28;20037;-32
2023/03/26 12:47:59;;;;;;;11.27;4.53;;;;;;;17.82;59.65;95525.38;10379810;28;20117;-37
2023/03/26 12:53:39;;;;;;;10.90;4.18;;;;;;;17.79;59.11;95527.94;10379310;28;20033;-33
2023/03/26 12:59:04;;;;;;;16.35;4.30;;;;;;;17.79;59.44;95535.53;10370870;28;20116;-34
2023/03/26 13:04:43;;;;;;;11.05;3.80;;;;;;;17.76;59.05;95521.22;10387357;28;20121;-33
2023/03/26 13:10:21;;;;;;;16.20;4.47;;;;;;;17.77;59.44;95515.31;10387527;28;20053;-33
2023/03/26 13:15:27;;;;;;;13.68;3.17;;;;;;;17.74;58.41;95491.75;10381458;28;20135;-33
2023/03/26 13:20:44;;;;;;;10.98;3.25;;;;;;;17.67;58.04;95488.47;10386367;28;20057;-32
2023/03/26 13:26:13;;;;;;;;;;;;;;;17.73;59.77;95470.66;10389628;28;20421;-33
2023/03/26 13:31:23;;;;;;;15.20;4.40;;;;;;;17.76;59.20;95465.53;10380629;28;20312;-33
2023/03/26 13:36:56;;;;;;;10.02;3.40;;;;;;;17.82;59.69;95455.31;10393047;28;20056;-32
2023/03/26 13:42:32;;;;;;;11.65;3.63;;;;;;;17.78;59.14;95452.84;10390566;28;20030;-32
2023/03/26 13:47:39;;;;;;;11.13;3.55;;;;;;;17.74;59.07;95433.53;10376560;28;20046;-33
2023/03/26 13:52:56;;;;;;;13.60;3.78;;;;;;;17.67;59.04;95396.53;10386468;28;20086;-33
2023/03/26 13:58:16;;;;;;;10.18;3.70;;;;;;;17.69;58.64;95379.63;10394379;28;20512;-33
2023/03/26 14:03:36;;;;;;;11.23;3.17;;;;;;;17.63;58.60;95428.66;10380545;28;20083;-33
2023/03/26 14:08:43;;;;;;;11.15;3.78;;;;;;;17.72;59.32;95549.13;10381895;28;20026;-33
2023/03/26 14:13:46;;;;;;;10.75;3.33;;;;;;;17.68;58.77;95598.16;10393602;28;20052;-33
2023/03/26 14:18:53;;;;;;;10.65;3.50;;;;;;;17.67;58.60;95614.19;10395141;28;20040;-32
2023/03/26 14:24:26;;;;;;;10.60;3.28;;;;;;;17.65;59.02;95588.06;10387571;28;20513;-33
2023/03/26 14:29:45;;;;;;;4.97;2.47;;;;;;;17.63;57.86;95584.72;10373579;28;20044;-32
2023/03/26 14:35:09;;;;;;;8.13;3.13;;;;;;;17.73;60.00;95601.47;10379450;28;20056;-32
2023/03/26 14:40:28;;;;;;;7.63;3.13;;;;;;;17.79;59.94;95576.03;10389868;28;20063;-32
2023/03/26 14:45:54;;;;;;;6.00;3.08;;;;;;;17.73;59.47;95555.91;10392332;28;20071;-35
2023/03/26 14:51:11;;;;;;;6.35;2.72;;;;;;;17.63;58.86;95552.66;10384191;28;20033;-33
2023/03/26 14:56:23;;;;;;;7.28;2.53;;;;;;;17.62;57.86;95553.53;10390830;28;20040;-35
2023/03/26 15:01:45;;;;;;;7.40;2.47;;;;;;;17.60;57.78;95549.34;10391121;28;20041;-32
2023/03/26 15:07:22;;;;;;;4.93;2.03;;;;;;;17.62;56.25;95552.69;10374622;28;20042;-32
2023/03/26 15:12:22;;;;;;;3.72;1.85;;;;;;;17.61;56.05;95554.38;10398576;28;20037;-33
2023/03/26 15:17:39;;;;;;;12.02;2.65;;;;;;;17.56;56.30;95545.19;10391354;28;20057;-32
2023/03/26 15:22:54;;;;;;;8.10;2.78;;;;;;;17.61;56.82;95551.84;10386687;28;20490;-32
2023/03/26 15:28:22;;;;;;;5.60;1.90;;;;;;;17.60;57.39;95544.28;10395043;28;20088;-33
2023/03/26 15:33:42;;;;;;;;;;;;;;;17.60;55.75;95535.00;10389118;28;20049;-33
2023/03/26 15:39:06;;;;;;;6.32;2.95;;;;;;;17.60;59.20;95509.69;10387903;28;19932;-33
2023/03/26 15:44:35;;;;;;;9.13;2.70;;;;;;;17.73;60.10;95508.63;10385980;28;20127;-33
2023/03/26 15:49:51;;;;;;;5.13;2.38;;;;;;;17.71;59.95;95517.09;10401665;28;20076;-32
2023/03/26 15:55:03;;;;;;;6.63;2.03;;;;;;;17.70;59.29;95530.63;10400822;28;20128;-33
2023/03/26 16:00:27;;;;;;;4.22;2.08;;;;;;;17.66;59.09;95531.53;10395963;28;20181;-32
2023/03/26 16:05:55;;;;;;;6.70;2.47;;;;;;;17.66;58.68;95544.19;10387711;28;20398;-33
2023/03/26 16:11:01;;;;;;;4.70;1.95;;;;;;;17.60;58.20;95534.16;10389261;28;20067;-32
2023/03/26 16:16:02;;;;;;;;;;;;;;;17.64;58.27;95546.72;10395038;28;20080;-32
2023/03/26 16:21:35;;;;;;;4.85;2.42;;;;;;;17.66;59.02;95551.78;10385666;28;20336;-33
2023/03/26 16:26:50;;;;;;;5.65;1.92;;;;;;;17.68;59.22;95567.78;10382466;28;20034;-33
2023/03/26 16:32:06;;;;;;;5.05;2.08;;;;;;;17.71;59.83;95575.31;10394291;28;20037;-32
2023/03/26 16:37:38;;;;;;;6.07;2.03;;;;;;;17.70;59.74;95563.53;10393084;28;20568;-34
2023/03/26 16:42:50;;;;;;;4.75;2.08;;;;;;;17.70;59.80;95566.91;10380799;28;20119;-32
2023/03/26 16:48:15;;;;;;;6.35;1.88;;;;;;;17.67;57.16;95566.94;10386309;28;20030;-33
2023/03/26 16:53:16;;;;;;;7.82;2.33;;;;;;;17.67;56.96;95540.78;10389888;28;20042;-33
2023/03/26 16:58:29;;;;;;;5.75;1.75;;;;;;;17.80;57.68;95548.16;10387475;28;20091;-34
2023/03/26 17:03:43;;;;;;;3.78;1.50;;;;;;;17.80;58.92;95552.38;10378553;28;20052;-34
2023/03/26 17:09:05;;;;;;;5.13;1.95;;;;;;;17.82;59.06;95560.81;10374767;28;20036;-33
2023/03/26 17:14:16;;;;;;;3.90;1.90;;;;;;;17.83;59.08;95582.72;10374989;28;20034;-33
2023/03/26 17:19:27;;;;;;;7.22;2.10;;;;;;;17.84;59.14;95592.00;10379309;28;20037;-32
2023/03/26 17:24:33;;;;;;;4.90;1.88;;;;;;;17.81;58.94;95600.47;10378049;28;20033;-33
2023/03/26 17:30:02;;;;;;;7.40;2.10;;;;;;;17.81;59.02;95597.94;10389446;28;20091;-32
2023/03/26 17:35:05;;;;;;;5.13;1.88;;;;;;;17.81;58.88;95589.50;10373876;28;20037;-32
2023/03/26 17:40:42;;;;;;;6.47;2.45;;;;;;;17.84;58.68;95589.47;10379264;28;20033;-33
2023/03/26 17:45:44;;;;;;;3.77;2.00;;;;;;;17.84;58.76;95599.59;10376591;28;20046;-32
2023/03/26 17:50:50;;;;;;;8.70;2.30;;;;;;;17.72;59.12;95594.69;10376924;28;20872;-33
2023/03/26 17:55:51;;;;;;;6.68;2.70;;;;;;;17.85;58.83;95601.25;10379177;28;20072;-32
2023/03/26 18:01:01;;;;;;;7.03;3.15;;;;;;;17.85;58.73;95598.72;10389108;28;20137;-33
2023/03/26 18:06:37;;;;;;;5.90;2.72;;;;;;;17.85;58.58;95596.19;10390395;28;20033;-32
2023/03/26 18:11:55;;;;;;;8.18;4.18;;;;;;;17.84;58.92;95590.28;10379726;28;20079;-32
2023/03/26 18:16:58;;;;;;;10.18;3.70;;;;;;;17.90;57.89;95586.84;10386530;28;20088;-33
2023/03/26 18:22:04;;;;;;;10.07;3.65;;;;;;;18.02;57.17;95584.09;10386312;28;20042;-32
2023/03/26 18:27:09;;;;;;;9.40;3.65;;;;;;;17.98;57.57;95588.38;10375897;28;20575;-32
2023/03/26 18:32:10;;;;;;;17.58;5.85;;;;;;;17.95;59.84;95582.53;10384359;28;20116;-33
2023/03/26 18:37:21;;;;;;;9.48;4.60;;;;;;;17.93;58.57;95584.25;10382918;28;20569;-33
2023/03/26 18:42:22;;;;;;;14.55;5.65;;;;;;;17.91;60.23;95584.28;10387043;28;20033;-33
2023/03/26 18:47:23;;;;;;;10.15;3.83;;;;;;;17.86;59.43;95577.63;10375665;28;20044;-32
2023/03/26 18:52:26;;;;;;;11.60;5.05;;;;;;;17.95;59.12;95587.59;10366362;28;20047;-33
2023/03/26 18:57:27;;;;;;;13.02;5.20;;;;;;;17.96;60.11;95574.06;10386512;28;20087;-33
2023/03/26 19:02:28;;;;;;;10.55;4.85;;;;;;;17.95;59.74;95567.34;10394120;28;20029;-32
2023/03/26 19:07:29;;;;;;;11.40;4.85;;;;;;;17.91;59.70;95558.13;10376841;28;20045;-32
2023/03/26 19:12:35;;;;;;;11.65;5.00;;;;;;;17.89;59.77;95560.69;10382840;28;20026;-32
2023/03/26 19:17:41;;;;;;;9.77;3.85;;;;;;;17.88;59.58;95560.69;10373797;28;20752;-32
2023/03/26 19:22:43;;;;;;;12.17;4.43;;;;;;;17.87;58.89;95553.97;10383844;28;20122;-32
2023/03/26 19:27:44;;;;;;;12.48;4.50;;;;;;;17.86;59.05;95553.16;10382259;28;20405;-31
2023/03/26 19:32:52;;;;;;;9.82;4.70;;;;;;;17.87;59.36;95552.28;10369592;28;20510;-32
2023/03/26 19:37:53;;;;;;;7.75;4.18;;;;;;;17.86;59.09;95562.41;10369709;28;20045;-32
2023/03/26 19:42:53;;;;;;;8.20;4.10;;;;;;;17.85;59.22;95565.81;10378841;28;20565;-32
2023/03/26 19:47:54;;;;;;;8.87;4.27;;;;;;;17.85;59.16;95570.88;10385276;28;20292;-32
2023/03/26 19:53:18;;;;;;;12.13;4.32;;;;;;;17.85;59.44;95588.59;10387916;28;20464;-32
2023/03/26 19:58:18;;;;;;;7.22;3.72;;;;;;;17.88;59.13;95570.81;10383880;28;20164;-34
2023/03/26 20:03:26;;;;;;;8.52;3.97;;;;;;;17.90;59.23;95559.00;10383749;28;20033;-33
2023/03/26 20:08:27;;;;;;;8.10;3.65;;;;;;;17.87;59.04;95556.50;10381163;28;20049;-32
2023/03/26 20:13:29;;;;;;;5.00;3.35;;;;;;;17.84;59.22;95554.03;10386209;28;20062;-32
2023/03/26 20:18:30;;;;;;;6.97;4.43;;;;;;;17.83;59.44;95568.38;10379664;28;20042;-32
2023/03/26 20:23:30;;;;;;;6.03;3.37;;;;;;;17.83;58.81;95578.50;10372518;28;20033;-34
2023/03/26 20:28:30;;;;;;;8.57;4.27;;;;;;;17.85;57.80;95581.00;10376297;28;20026;-32
2023/03/26 20:33:31;;;;;;;11.37;3.70;;;;;;;17.84;58.89;95595.34;10385646;28;20048;-32
2023/03/26 20:38:31;;;;;;;7.57;3.40;;;;;;;17.80;57.14;95608.94;10376215;28;20088;-32
2023/03/26 20:43:32;;;;;;;5.30;3.00;;;;;;;17.81;57.62;95617.34;10371325;28;20390;-32
2023/03/26 20:48:32;;;;;;;5.63;2.90;;;;;;;17.82;59.58;95619.84;10370785;28;20033;-33
2023/03/26 20:53:33;;;;;;;6.05;3.47;;;;;;;17.81;57.96;95608.06;10385725;28;20111;-33
2023/03/26 20:58:34;;;;;;;5.18;3.38;;;;;;;17.82;59.07;95611.44;10374603;28;20046;-32
2023/03/26 21:03:34;;;;;;;5.27;3.23;;;;;;;17.88;60.57;95622.31;10368731;28;20034;-32
2023/03/26 21:08:36;;;;;;;7.18;3.78;;;;;;;17.87;60.24;95609.66;10368003;28;20280;-35
2023/03/26 21:13:42;;;;;;;5.55;3.13;;;;;;;17.84;59.58;95594.53;10384986;28;20551;-33
2023/03/26 21:18:43;;;;;;;5.32;2.67;;;;;;;17.82;59.34;95593.72;10383101;28;20446;-33
2023/03/26 21:23:58;;;;;;;6.50;2.88;;;;;;;17.80;60.14;95598.81;10381804;28;20061;-32
2023/03/26 21:28:59;;;;;;;7.20;3.53;;;;;;;17.80;59.89;95592.88;10389822;28;20026;-32
2023/03/26 21:34:01;;;;;;;8.05;3.38;;;;;;;17.79;59.76;95598.81;10393411;28;20037;-32
2023/03/26 21:39:02;;;;;;;5.57;2.40;;;;;;;17.78;59.68;95599.69;10390149;28;20037;-32
2023/03/26 21:44:02;;;;;;;5.93;2.78;;;;;;;17.74;59.00;95587.94;10391043;28;20095;-32
2023/03/26 21:49:03;;;;;;;6.20;2.38;;;;;;;17.74;59.24;95585.41;10389933;28;20417;-32
2023/03/26 21:54:21;;;;;;;6.72;3.00;;;;;;;17.77;59.89;95585.34;10387605;28;20041;-33
2023/03/26 21:59:50;;;;;;;7.63;2.97;;;;;;;17.76;60.01;95594.63;10391299;28;20116;-33
2023/03/26 22:04:56;;;;;;;7.35;2.85;;;;;;;17.81;60.45;95597.94;10380932;28;20034;-32
2023/03/26 22:09:56;;;;;;;7.33;3.30;;;;;;;17.81;60.29;95589.50;10391914;28;20107;-33
2023/03/26 22:14:57;;;;;;;7.32;2.78;;;;;;;17.82;59.97;95608.91;10389771;28;20079;-33
2023/03/26 22:20:00;;;;;;;4.03;2.63;;;;;;;17.72;59.92;95603.13;10390777;28;20037;-32
2023/03/26 22:25:00;;;;;;;5.45;2.67;;;;;;;17.77;59.59;95616.56;10387902;28;20080;-32
2023/03/26 22:30:00;;;;;;;6.07;2.70;;;;;;;17.76;59.63;95627.53;10383953;28;20052;-32
2023/03/26 22:35:02;;;;;;;3.43;2.30;;;;;;;17.77;59.61;95630.91;10390622;28;20033;-33
2023/03/26 22:40:07;;;;;;;4.07;1.90;;;;;;;17.75;59.94;95625.88;10388339;28;20041;-31
2023/03/26 22:45:11;;;;;;;6.63;2.42;;;;;;;17.77;59.77;95628.38;10388699;28;20034;-32
2023/03/26 22:50:11;;;;;;;6.20;3.00;;;;;;;17.75;59.30;95635.16;10386745;28;20037;-31
2023/03/26 22:55:12;;;;;;;4.10;2.50;;;;;;;17.75;60.05;95643.59;10387041;28;20095;-32
2023/03/26 23:00:18;;;;;;;3.67;2.35;;;;;;;17.75;59.29;95651.19;10390987;28;20037;-32
2023/03/26 23:05:18;;;;;;;4.97;2.87;;;;;;;17.73;59.71;95644.50;10391291;28;20034;-32
2023/03/26 23:10:20;;;;;;;7.67;3.03;;;;;;;17.79;60.36;95662.94;10382574;28;20164;-32
2023/03/26 23:15:21;;;;;;;10.80;2.58;;;;;;;17.79;60.45;95662.09;10390285;28;20109;-32
2023/03/26 23:20:21;;;;;;;3.40;2.00;;;;;;;17.78;59.76;95670.56;10397731;28;20037;-32
2023/03/26 23:25:21;;;;;;;3.93;2.57;;;;;;;17.75;59.62;95671.44;10397291;28;20477;-32
2023/03/26 23:30:22;;;;;;;4.23;2.20;;;;;;;17.76;59.59;95687.47;10393598;28;20413;-31
2023/03/26 23:35:22;;;;;;;4.75;2.22;;;;;;;17.75;59.55;95690.88;10390707;28;20539;-33
2023/03/26 23:40:23;;;;;;;3.27;2.13;;;;;;;17.74;59.71;95705.19;10389017;28;20056;-34
2023/03/26 23:45:23;;;;;;;4.97;2.77;;;;;;;17.74;59.56;95706.91;10414878;23;20343;-29
2023/03/26 23:50:23;;;;;;;3.90;2.03;;;;;;;17.75;59.46;95721.25;10405831;28;20079;-29
2023/03/26 23:55:27;;;;;;;3.03;1.73;;;;;;;17.74;59.36;95727.97;10429906;28;20083;-29
